Time;durP1;ratioP1;P1;durP2;ratioP2;P2;SDS_P1;SDS_P2;PMS_P1;PMS_P2;Temp;Humidity;BMP_temperature;BMP_pressure;BME280_temperature;BME280_humidity;BME280_pressure;Samples;Min_cycle;Max_cycle;Signal;HPM_P1;HPM_P2
2021/12/17 00:01:00;;;;;;;35.97;19.38;;;;;;;14.25;56.84;103547.31;5016512;28;20041;-90
2021/12/17 00:03:44;;;;;;;37.42;19.27;;;;;;;14.26;56.64;103542.72;5029731;28;20574;-90
2021/12/17 00:08:54;;;;;;;37.25;19.25;;;;;;;14.24;56.61;103544.66;5027615;28;20416;-90
2021/12/17 00:11:23;;;;;;;37.90;19.27;;;;;;;14.24;56.93;103558.31;5019782;28;20095;-90
2021/12/17 00:13:52;;;;;;;38.55;19.63;;;;;;;14.24;56.68;103553.75;5012088;28;20033;-90
2021/12/17 00:16:23;;;;;;;30.40;16.10;;;;;;;14.24;56.85;103551.00;5033270;28;20052;-90
2021/12/17 00:19:20;;;;;;;31.98;17.65;;;;;;;14.25;57.18;103558.22;5011833;28;20144;-90
2021/12/17 00:49:25;;;;;;;32.58;16.58;;;;;;;14.30;57.20;103525.28;5021038;28;20508;-90
2021/12/17 00:52:01;;;;;;;29.65;16.05;;;;;;;14.29;56.68;103524.38;5048353;28;20045;-90
2021/12/17 00:54:38;;;;;;;28.48;14.20;;;;;;;14.31;56.94;103524.31;5011093;28;20049;-90
2021/12/17 00:57:16;;;;;;;37.72;17.33;;;;;;;14.33;56.91;103523.28;5032368;28;20049;-90
2021/12/17 00:59:52;;;;;;;38.78;17.75;;;;;;;14.33;56.64;103517.81;5032974;28;20585;-90
2021/12/17 01:02:22;;;;;;;37.28;18.80;;;;;;;14.34;56.75;103516.88;5030922;28;20053;-90
2021/12/17 01:04:55;;;;;;;37.97;18.08;;;;;;;14.34;57.03;103515.97;5034078;28;20381;-90
2021/12/17 01:07:23;;;;;;;;;;;;;;;14.08;57.52;103508.84;5036766;28;20175;-90
2021/12/17 01:09:53;;;;;;;35.38;16.83;;;;;;;14.26;56.75;103513.56;5039107;28;19925;-90
2021/12/17 01:12:21;;;;;;;35.25;17.35;;;;;;;14.31;56.98;103507.94;5023279;28;20129;-90
2021/12/17 01:14:50;;;;;;;33.92;17.02;;;;;;;14.30;56.53;103507.03;5016263;28;20053;-90
2021/12/17 01:17:22;;;;;;;28.40;15.05;;;;;;;14.30;56.99;103504.31;5030375;28;20403;-90
2021/12/17 01:22:56;;;;;;;34.78;17.95;;;;;;;14.26;57.25;103499.00;5032286;28;20775;-90
2021/12/17 01:25:46;;;;;;;35.92;17.73;;;;;;;14.28;56.70;103497.09;5016100;28;20544;-90
2021/12/17 01:36:34;;;;;;;33.78;17.08;;;;;;;14.22;57.06;103506.47;5032720;28;20042;-90
2021/12/17 01:42:06;;;;;;;35.08;16.90;;;;;;;14.23;56.79;103499.16;5027699;28;20411;-90
2021/12/17 01:44:36;;;;;;;33.53;17.42;;;;;;;14.24;57.01;103495.47;5029650;28;20057;-90
2021/12/17 01:47:04;;;;;;;33.95;17.13;;;;;;;14.25;56.99;103505.41;5048274;28;20103;-91
2021/12/17 02:00:32;;;;;;;36.15;17.15;;;;;;;14.30;56.59;103519.81;5025656;28;20060;-90
2021/12/17 02:03:00;;;;;;;34.08;16.67;;;;;;;14.26;57.00;103515.41;5001318;28;20050;-90
2021/12/17 02:05:27;;;;;;;35.70;19.38;;;;;;;14.27;56.69;103515.34;5048143;28;20144;-91
2021/12/17 02:07:57;;;;;;;35.90;17.63;;;;;;;14.26;56.87;103513.56;5034209;28;20467;-90
2021/12/17 02:32:21;;;;;;;29.55;15.40;;;;;;;14.16;57.23;103519.47;5031068;28;20041;-90
2021/12/17 02:37:27;;;;;;;37.65;18.38;;;;;;;14.16;56.97;103523.09;5031668;28;20553;-91
2021/12/17 02:40:21;;;;;;;34.58;17.25;;;;;;;14.16;56.67;103523.09;5038451;28;20052;-89
2021/12/17 02:45:32;;;;;;;31.83;16.52;;;;;;;14.11;56.87;103519.63;5032593;28;19921;-90
2021/12/17 02:48:12;;;;;;;37.25;17.02;;;;;;;14.17;57.34;103516.66;5011311;28;20061;-90
2021/12/17 02:50:49;;;;;;;34.30;17.33;;;;;;;14.18;57.20;103517.56;5047304;28;20164;-91
2021/12/17 02:53:25;;;;;;;;;;;;;;;13.92;57.82;103519.47;5030951;28;20052;-90
2021/12/17 02:55:56;;;;;;;32.33;16.70;;;;;;;14.13;57.16;103519.59;5030024;28;19957;-90
2021/12/17 02:58:26;;;;;;;34.63;17.10;;;;;;;14.18;56.95;103518.44;5039402;28;20044;-90
2021/12/17 03:00:55;;;;;;;37.03;17.92;;;;;;;14.18;57.01;103514.81;5024355;28;20063;-91
2021/12/17 03:03:25;;;;;;;38.63;19.45;;;;;;;14.18;56.96;103512.97;5015303;28;20373;-91
2021/12/17 03:05:53;;;;;;;37.65;18.50;;;;;;;14.18;56.74;103512.97;5027094;28;20144;-90
2021/12/17 03:08:22;;;;;;;40.13;19.20;;;;;;;14.19;56.87;103516.59;5014299;28;20045;-89
2021/12/17 03:10:50;;;;;;;36.17;19.48;;;;;;;14.19;57.31;103516.59;5033754;28;20048;-90
2021/12/17 03:13:24;;;;;;;37.80;18.70;;;;;;;14.17;57.19;103515.75;5029474;28;20077;-90
2021/12/17 03:15:57;;;;;;;34.05;17.63;;;;;;;14.18;56.93;103507.50;5043282;28;20069;-90
2021/12/17 03:18:54;;;;;;;37.30;18.08;;;;;;;14.17;57.03;103513.94;5011857;28;20511;-91
2021/12/17 03:24:22;;;;;;;39.00;18.33;;;;;;;14.14;57.07;103511.34;5031023;28;20080;-90
2021/12/17 03:26:50;;;;;;;33.80;18.02;;;;;;;14.18;57.25;103512.97;5046968;28;20424;-91
2021/12/17 03:29:19;;;;;;;40.35;19.65;;;;;;;14.19;57.15;103513.88;5027933;28;20137;-90
2021/12/17 03:31:47;;;;;;;36.97;18.27;;;;;;;14.18;57.01;103509.34;5030786;28;20052;-91
2021/12/17 03:34:19;;;;;;;36.05;18.15;;;;;;;14.19;57.25;103503.84;5028291;28;20081;-91
2021/12/17 03:36:57;;;;;;;39.78;19.30;;;;;;;14.21;56.94;103510.13;5011859;28;20042;-91
2021/12/17 03:39:25;;;;;;;39.97;19.40;;;;;;;14.19;56.77;103505.66;5035354;28;20477;-90
2021/12/17 03:41:56;;;;;;;37.03;18.80;;;;;;;14.19;56.98;103508.41;5030380;28;20049;-91
2021/12/17 03:44:26;;;;;;;41.63;18.88;;;;;;;14.17;56.98;103499.38;5046454;28;20378;-90
2021/12/17 03:46:53;;;;;;;38.53;19.63;;;;;;;14.18;57.33;103503.88;5022672;28;20049;-90
2021/12/17 03:49:22;;;;;;;33.05;17.85;;;;;;;14.18;57.12;103499.31;5030599;28;20409;-90
2021/12/17 03:52:04;;;;;;;34.85;18.40;;;;;;;14.19;56.94;103497.47;5030623;28;20192;-91
2021/12/17 03:54:36;;;;;;;30.17;16.65;;;;;;;14.18;57.15;103507.50;5029739;28;20049;-91
2021/12/17 03:57:10;;;;;;;35.30;17.45;;;;;;;14.20;57.22;103508.34;5029158;28;20428;-91
2021/12/17 03:59:37;;;;;;;30.33;15.75;;;;;;;14.20;57.11;103513.81;5015212;28;20049;-90
2021/12/17 04:02:04;;;;;;;28.20;14.77;;;;;;;14.21;57.10;103504.66;5034811;28;20439;-90
2021/12/17 04:04:30;;;;;;;30.92;15.77;;;;;;;14.22;57.56;103500.09;5022860;28;20045;-91
2021/12/17 04:06:57;;;;;;;35.70;17.65;;;;;;;14.24;57.36;103504.56;5030451;28;20041;-91
2021/12/17 04:09:29;;;;;;;34.25;16.55;;;;;;;14.25;57.31;103503.59;5009507;28;20057;-91
2021/12/17 04:11:56;;;;;;;33.28;17.08;;;;;;;14.27;57.29;103504.41;5012613;28;20045;-90
2021/12/17 04:14:33;;;;;;;33.33;16.85;;;;;;;14.29;56.94;103509.81;4995897;28;20057;-90
2021/12/17 04:17:04;;;;;;;30.10;17.45;;;;;;;14.29;57.49;103505.25;4996492;28;20046;-90
2021/12/17 04:19:32;;;;;;;37.40;17.55;;;;;;;14.30;57.08;103507.03;5012595;28;20080;-90
2021/12/17 04:21:59;;;;;;;28.25;17.00;;;;;;;14.31;57.38;103517.03;4992595;28;20050;-90
2021/12/17 04:24:27;;;;;;;35.97;16.38;;;;;;;14.32;57.05;103502.41;4976648;28;20042;-90
2021/12/17 04:26:54;;;;;;;38.38;19.02;;;;;;;14.32;57.23;103496.06;4977564;28;20101;-91
2021/12/17 04:29:22;;;;;;;36.10;18.38;;;;;;;14.34;57.22;103505.06;4989166;28;20064;-90
2021/12/17 04:31:54;;;;;;;38.70;19.08;;;;;;;14.33;57.24;103500.56;4975220;28;20057;-90
2021/12/17 04:34:27;;;;;;;37.10;19.85;;;;;;;14.33;57.26;103504.16;4976600;28;20477;-91
2021/12/17 04:36:56;;;;;;;33.67;18.30;;;;;;;14.34;57.12;103503.22;4980797;28;20153;-91
2021/12/17 04:39:26;;;;;;;31.98;17.13;;;;;;;14.35;57.04;103498.63;4976395;28;20090;-90
2021/12/17 04:44:27;;;;;;;37.10;18.85;;;;;;;14.37;57.18;103502.22;5012506;28;20061;-90
2021/12/17 04:57:20;;;;;;;40.22;20.23;;;;;;;14.38;57.13;103513.13;4992166;28;20046;-91
2021/12/17 04:58:02;;;;;;;38.47;19.98;;;;;;;14.35;57.23;103507.72;5010468;28;20141;-90
2021/12/17 05:00:32;;;;;;;41.55;22.23;;;;;;;14.38;57.21;103517.66;5026112;28;20067;-90
2021/12/17 05:03:00;;;;;;;35.47;18.15;;;;;;;14.36;57.06;103511.34;5049278;28;20053;-90
2021/12/17 05:05:31;;;;;;;42.22;21.60;;;;;;;14.38;56.94;103525.84;5025924;28;20053;-90
2021/12/17 05:08:12;;;;;;;44.10;21.27;;;;;;;14.36;56.89;103523.19;5044444;28;20081;-90
2021/12/17 05:21:37;;;;;;;37.53;18.63;;;;;;;14.35;57.04;103515.94;5027403;28;20072;-90
2021/12/17 05:24:04;;;;;;;42.17;21.65;;;;;;;14.37;56.97;103510.41;5032723;28;20067;-90
2021/12/17 05:26:35;;;;;;;46.58;21.98;;;;;;;14.39;57.39;103514.00;5023896;28;20038;-90
2021/12/17 05:29:03;;;;;;;44.58;23.33;;;;;;;14.38;56.96;103509.47;5036986;28;20052;-91
2021/12/17 05:31:29;;;;;;;45.42;22.23;;;;;;;14.38;56.95;103510.38;5032236;28;20049;-90
2021/12/17 05:33:56;;;;;;;46.83;22.90;;;;;;;14.39;57.12;103505.81;5033469;28;20077;-91
2021/12/17 05:36:23;;;;;;;41.97;22.23;;;;;;;14.37;57.39;103508.56;5032908;28;20492;-91
2021/12/17 05:38:50;;;;;;;45.88;22.63;;;;;;;14.38;57.39;103510.38;5008963;28;20447;-91
2021/12/17 05:41:20;;;;;;;47.83;23.00;;;;;;;14.37;56.86;103508.56;5030123;28;20045;-90
2021/12/17 05:43:56;;;;;;;48.92;23.70;;;;;;;14.39;57.25;103505.81;5048899;28;20045;-91
2021/12/17 05:46:49;;;;;;;37.92;19.30;;;;;;;14.36;57.19;103506.78;5032882;28;20438;-91
2021/12/17 05:49:24;;;;;;;37.22;18.48;;;;;;;14.37;57.44;103502.22;5035218;28;20053;-91
2021/12/17 05:51:53;;;;;;;40.67;20.33;;;;;;;14.37;57.33;103503.09;5033954;28;20080;-91
2021/12/17 05:54:21;;;;;;;37.55;20.45;;;;;;;14.36;57.12;103506.78;5031896;28;20045;-88
2021/12/17 05:56:47;;;;;;;40.65;21.20;;;;;;;14.35;57.60;103505.00;5047903;28;20045;-90
2021/12/17 05:59:14;;;;;;;34.38;16.90;;;;;;;14.37;56.89;103511.31;5015096;28;20049;-90
2021/12/17 06:01:41;;;;;;;33.55;16.80;;;;;;;14.36;57.27;103514.97;5012190;28;20041;-87
2021/12/17 06:04:08;;;;;;;40.67;20.42;;;;;;;14.36;57.18;103504.03;5033415;28;20386;-86
2021/12/17 06:06:38;;;;;;;41.55;20.63;;;;;;;14.38;57.22;103515.84;5029262;28;20065;-89
2021/12/17 06:09:10;;;;;;;41.30;20.38;;;;;;;14.38;57.37;103504.00;5045721;28;20048;-89
2021/12/17 06:11:39;;;;;;;37.70;19.08;;;;;;;14.37;57.37;103504.94;5015028;28;20053;-88
2021/12/17 06:14:10;;;;;;;;;;;;;;;14.15;57.78;103509.50;5031628;28;20049;-87
2021/12/17 06:16:37;;;;;;;39.65;18.20;;;;;;;14.35;57.32;103501.38;5014773;28;19974;-89
2021/12/17 06:19:04;;;;;;;38.55;18.50;;;;;;;14.37;57.30;103504.94;5044159;28;20492;-89
2021/12/17 06:21:31;;;;;;;36.88;19.85;;;;;;;14.38;57.17;103507.66;5008213;28;20052;-89
2021/12/17 06:23:58;;;;;;;39.33;18.45;;;;;;;14.37;57.02;103499.47;5029883;28;20045;-89
2021/12/17 06:26:25;;;;;;;40.88;19.27;;;;;;;14.38;57.04;103501.25;5032093;28;20041;-90
2021/12/17 06:28:52;;;;;;;30.52;17.27;;;;;;;14.38;57.25;103495.78;5028694;28;20064;-89
2021/12/17 06:31:21;;;;;;;34.10;16.80;;;;;;;14.39;57.48;103506.69;5046988;28;20049;-89
2021/12/17 06:33:48;;;;;;;31.85;16.10;;;;;;;14.39;57.58;103511.28;5031906;28;20041;-90
2021/12/17 06:36:16;;;;;;;29.73;16.63;;;;;;;14.40;57.41;103513.06;5032945;28;20061;-90
2021/12/17 06:38:43;;;;;;;35.15;17.00;;;;;;;14.39;57.25;103514.00;5022005;28;20073;-90
2021/12/17 06:41:11;;;;;;;31.33;15.85;;;;;;;14.39;57.28;103503.97;5017395;28;20049;-89
2021/12/17 06:43:40;;;;;;;33.92;16.17;;;;;;;14.38;57.18;103496.72;5014093;28;20471;-89
2021/12/17 06:48:43;;;;;;;32.72;16.58;;;;;;;14.39;57.49;103492.16;5030587;28;20500;-90
2021/12/17 06:59:37;;;;;;;38.85;18.27;;;;;;;14.39;57.61;103506.69;5025318;28;20493;-75
2021/12/17 07:21:42;;;;;;;34.88;16.77;;;;;;;14.34;57.24;103511.41;5018777;28;20041;-87
2021/12/17 07:28:05;;;;;;;36.88;17.55;;;;;;;14.35;57.69;103512.31;5011445;28;20076;-85
2021/12/17 07:35:49;;;;;;;32.85;15.82;;;;;;;14.31;57.41;103508.81;5038192;28;20046;-87
2021/12/17 07:41:04;;;;;;;28.73;15.18;;;;;;;14.34;57.42;103514.13;5053905;28;20056;-89
2021/12/17 07:43:50;;;;;;;29.08;14.50;;;;;;;14.34;57.58;103514.13;5061855;28;20051;-89
2021/12/17 07:46:19;;;;;;;30.05;15.05;;;;;;;14.33;57.34;103522.44;5037300;28;20037;-89
2021/12/17 07:49:10;;;;;;;28.88;15.98;;;;;;;14.36;57.74;103519.56;5074467;28;20584;-89
2021/12/17 07:51:36;;;;;;;29.27;16.10;;;;;;;14.33;57.43;103514.22;5071391;28;20051;-87
2021/12/17 07:54:03;;;;;;;27.90;14.40;;;;;;;14.35;57.44;103523.22;5049249;28;20048;-88
2021/12/17 07:56:37;;;;;;;30.00;15.18;;;;;;;14.36;57.39;103533.22;5059171;28;20040;-87
2021/12/17 07:59:08;;;;;;;28.13;14.25;;;;;;;14.35;57.66;103537.78;5075055;28;20515;-85
2021/12/17 08:01:37;;;;;;;30.67;14.68;;;;;;;14.37;57.50;103543.22;5073694;28;20048;-84
2021/12/17 08:04:06;;;;;;;30.60;14.65;;;;;;;14.38;57.38;103545.00;5047634;28;20477;-86
2021/12/17 08:06:34;;;;;;;27.08;14.23;;;;;;;14.38;57.41;103542.25;5072019;28;20048;-86
2021/12/17 08:09:03;;;;;;;25.58;13.07;;;;;;;14.37;57.14;103540.47;5064547;28;20122;-86
2021/12/17 08:11:32;;;;;;;26.42;12.70;;;;;;;14.36;57.29;103533.22;5059855;28;20052;-87
2021/12/17 08:14:00;;;;;;;24.25;13.43;;;;;;;14.36;57.42;103539.56;5059736;28;20667;-85
2021/12/17 08:16:41;;;;;;;25.42;13.05;;;;;;;14.35;57.63;103546.00;5072819;28;20048;-90
2021/12/17 08:27:44;;;;;;;23.98;12.27;;;;;;;14.29;57.64;103543.50;5028014;28;20492;-89
2021/12/17 08:32:44;;;;;;;20.38;9.88;;;;;;;14.29;57.41;103559.91;5029510;28;20049;-86
2021/12/17 08:35:13;;;;;;;21.98;10.73;;;;;;;14.28;57.59;103563.59;5024783;28;20045;-90
2021/12/17 08:37:39;;;;;;;21.67;11.20;;;;;;;14.29;57.62;103564.47;5019481;28;20049;-89
2021/12/17 08:40:08;;;;;;;25.35;12.38;;;;;;;14.30;57.30;103564.44;5039910;28;20049;-89
2021/12/17 08:42:43;;;;;;;25.08;12.98;;;;;;;14.33;57.29;103568.91;5032546;28;20046;-88
2021/12/17 08:45:10;;;;;;;21.77;11.27;;;;;;;14.29;57.27;103573.56;5009055;28;20046;-88
2021/12/17 08:47:40;;;;;;;21.45;10.45;;;;;;;14.28;57.26;103577.25;5033869;28;20049;-89
2021/12/17 08:50:08;;;;;;;23.45;11.32;;;;;;;14.28;57.54;103579.09;5019349;28;20046;-87
2021/12/17 08:52:35;;;;;;;23.50;12.20;;;;;;;14.27;57.32;103583.66;5013968;28;20057;-87
2021/12/17 08:55:04;;;;;;;23.17;12.13;;;;;;;14.28;57.23;103581.81;5025349;28;20492;-85
2021/12/17 08:57:33;;;;;;;21.38;10.85;;;;;;;14.26;57.27;103575.53;5017642;28;20763;-88
2021/12/17 09:00:05;;;;;;;22.67;11.05;;;;;;;14.27;57.38;103580.03;5018358;28;20053;-86
2021/12/17 09:02:33;;;;;;;20.95;11.02;;;;;;;14.27;57.29;103575.47;5034187;28;20493;-89
2021/12/17 09:05:00;;;;;;;24.73;11.68;;;;;;;14.25;57.37;103576.47;5025170;28;20073;-89
2021/12/17 09:07:27;;;;;;;20.33;9.93;;;;;;;14.27;57.22;103577.31;5034599;28;20118;-89
2021/12/17 09:09:54;;;;;;;18.90;10.38;;;;;;;14.25;57.20;103569.16;5029931;28;20120;-88
2021/12/17 09:12:21;;;;;;;22.08;11.65;;;;;;;14.26;57.67;103583.72;5009804;28;20049;-89
2021/12/17 09:14:50;;;;;;;22.65;11.25;;;;;;;14.26;57.40;103586.44;5018246;28;20060;-85
2021/12/17 09:17:19;;;;;;;19.40;10.15;;;;;;;14.26;57.45;103581.88;5016452;28;20417;-86
2021/12/17 09:19:45;;;;;;;19.58;9.93;;;;;;;14.26;57.49;103586.44;5046655;28;20140;-89
2021/12/17 09:22:12;;;;;;;19.20;10.90;;;;;;;14.27;57.40;103583.66;5029777;28;20464;-89
2021/12/17 09:24:39;;;;;;;19.30;10.38;;;;;;;14.27;57.54;103588.25;5025489;28;20099;-74
2021/12/17 09:27:05;;;;;;;16.23;8.25;;;;;;;14.27;57.60;103583.66;5025428;28;20096;-87
2021/12/17 09:29:36;;;;;;;16.58;8.95;;;;;;;14.28;57.95;103585.44;5019184;28;20056;-84
2021/12/17 09:32:03;;;;;;;17.30;9.10;;;;;;;14.31;57.36;103589.91;5032869;28;20516;-87
2021/12/17 09:34:30;;;;;;;18.52;9.68;;;;;;;14.30;57.54;103586.28;5032505;28;20049;-88
2021/12/17 09:36:57;;;;;;;17.25;9.23;;;;;;;14.32;57.42;103591.69;5050497;28;20104;-87
2021/12/17 09:39:28;;;;;;;17.45;9.38;;;;;;;14.35;57.83;103597.03;5015061;28;20049;-88
2021/12/17 09:41:56;;;;;;;15.65;8.70;;;;;;;14.33;57.81;103604.41;5008272;28;20046;-86
2021/12/17 09:44:23;;;;;;;16.83;8.68;;;;;;;14.34;57.43;103603.44;5033061;28;20048;-86
2021/12/17 09:46:50;;;;;;;15.48;8.32;;;;;;;14.35;57.37;103610.69;5033582;28;20052;-87
2021/12/17 09:49:17;;;;;;;15.48;8.68;;;;;;;14.36;57.58;103609.75;5024290;28;20049;-86
2021/12/17 09:51:47;;;;;;;14.43;7.55;;;;;;;14.36;57.38;103609.75;5033268;28;20080;-85
2021/12/17 09:54:14;;;;;;;18.48;9.02;;;;;;;14.34;57.23;103607.06;5031249;28;20137;-87
2021/12/17 09:56:41;;;;;;;16.60;8.02;;;;;;;14.34;57.55;103604.34;5034045;28;20052;-88
2021/12/17 09:59:08;;;;;;;16.38;8.82;;;;;;;14.34;57.52;103606.19;5031966;28;20053;-89
2021/12/17 10:01:41;;;;;;;15.13;8.68;;;;;;;14.36;57.29;103610.66;5012467;28;20066;-86
2021/12/17 10:04:11;;;;;;;;;;;;;;;14.09;58.15;103598.03;5028023;28;20056;-87
2021/12/17 10:06:38;;;;;;;17.38;7.85;;;;;;;14.27;57.51;103594.59;5032358;28;19928;-87
2021/12/17 10:09:06;;;;;;;16.55;8.13;;;;;;;14.30;57.69;103605.41;5032000;28;20408;-83
2021/12/17 10:11:33;;;;;;;15.68;7.88;;;;;;;14.30;57.58;103599.97;5049973;28;20049;-83
2021/12/17 10:14:22;;;;;;;12.43;7.13;;;;;;;14.32;57.26;103600.78;5032722;28;20049;-87
2021/12/17 10:16:49;;;;;;;17.48;9.20;;;;;;;14.30;57.64;103605.41;5012696;28;20497;-85
2021/12/17 10:19:43;;;;;;;17.58;9.00;;;;;;;14.32;57.56;103599.91;5023298;28;20386;-87
2021/12/17 10:22:12;;;;;;;18.73;9.07;;;;;;;14.29;57.53;103603.63;5030234;28;20760;-85
2021/12/17 10:24:44;;;;;;;19.10;8.93;;;;;;;14.32;57.77;103597.16;5025989;28;20050;-85
2021/12/17 10:27:20;;;;;;;18.05;9.32;;;;;;;14.30;57.54;103599.97;5029899;28;20107;-87
2021/12/17 10:29:49;;;;;;;18.50;9.88;;;;;;;14.25;57.20;103604.69;5022006;28;20114;-84
2021/12/17 10:32:22;;;;;;;17.80;8.57;;;;;;;14.27;57.37;103604.63;5030063;28;20137;-83
2021/12/17 10:35:12;;;;;;;15.07;8.00;;;;;;;14.22;57.68;103599.38;5029899;28;20053;-85
2021/12/17 10:38:08;;;;;;;16.33;8.02;;;;;;;14.18;57.70;103605.88;5035862;28;20835;-86
2021/12/17 10:40:49;;;;;;;16.05;8.55;;;;;;;14.23;57.76;103600.25;5031133;28;20061;-85
2021/12/17 10:43:25;;;;;;;15.57;7.55;;;;;;;14.20;57.71;103601.25;5027462;28;20045;-85
2021/12/17 10:54:06;;;;;;;15.32;7.85;;;;;;;14.28;57.71;103590.91;5032833;28;20112;-87
2021/12/17 10:56:35;;;;;;;19.67;10.02;;;;;;;14.32;58.00;103584.41;5031155;28;20728;-85
2021/12/17 10:59:11;;;;;;;14.35;7.93;;;;;;;14.33;57.89;103586.16;5015120;28;20070;-85
2021/12/17 11:01:48;;;;;;;13.57;7.22;;;;;;;14.36;58.02;103587.88;5046504;28;20607;-85
2021/12/17 11:04:20;;;;;;;16.25;8.50;;;;;;;14.37;57.66;103590.56;5013274;28;20038;-85
2021/12/17 11:06:47;;;;;;;14.00;7.32;;;;;;;14.35;58.09;103588.81;5012472;28;20137;-85
2021/12/17 11:09:44;;;;;;;14.45;7.68;;;;;;;14.35;57.80;103588.81;5027866;28;20041;-86
2021/12/17 11:12:14;;;;;;;14.75;7.60;;;;;;;14.37;57.75;103587.81;5015251;28;20049;-87
2021/12/17 11:14:42;;;;;;;15.68;8.20;;;;;;;14.41;57.66;103584.03;5023707;28;20084;-86
2021/12/17 11:17:10;;;;;;;14.60;8.13;;;;;;;14.43;57.76;103587.63;5028375;28;20037;-85
2021/12/17 11:20:04;;;;;;;14.15;8.27;;;;;;;14.44;57.60;103594.88;5027106;28;20135;-86
2021/12/17 11:22:31;;;;;;;15.77;9.10;;;;;;;14.43;57.56;103581.25;5023238;28;20492;-85
2021/12/17 11:25:01;;;;;;;14.85;7.88;;;;;;;14.46;57.72;103579.31;5027336;28;20057;-86
2021/12/17 11:27:32;;;;;;;13.75;7.90;;;;;;;14.44;57.48;103593.97;5011237;28;20046;-86
2021/12/17 11:30:00;;;;;;;13.95;7.63;;;;;;;14.44;57.54;103588.50;5024562;28;20053;-87
2021/12/17 11:32:27;;;;;;;14.43;7.60;;;;;;;14.44;57.33;103589.41;5029329;28;20049;-86
2021/12/17 11:34:58;;;;;;;13.48;7.35;;;;;;;14.45;57.70;103588.44;5011206;28;20050;-85
2021/12/17 11:37:26;;;;;;;12.30;6.68;;;;;;;14.43;57.66;103586.72;5017836;28;20053;-83
2021/12/17 11:39:58;;;;;;;10.85;6.72;;;;;;;14.44;57.47;103583.03;5036121;28;20683;-85
2021/12/17 11:42:37;;;;;;;10.45;6.55;;;;;;;14.42;57.41;103585.81;4985236;28;20046;-84
2021/12/17 11:45:26;;;;;;;9.75;5.95;;;;;;;14.39;57.39;103590.53;5002620;28;20053;-85
2021/12/17 11:48:09;;;;;;;10.85;6.35;;;;;;;14.36;57.42;103590.63;5012429;28;20060;-85
2021/12/17 11:50:40;;;;;;;10.90;5.57;;;;;;;14.30;57.58;103589.03;5016275;28;20412;-84
2021/12/17 11:53:21;;;;;;;9.35;5.70;;;;;;;14.32;57.15;103589.88;5020047;28;20046;-87
2021/12/17 11:55:56;;;;;;;9.55;5.15;;;;;;;14.31;57.48;103592.66;5032140;28;20141;-87
2021/12/17 11:58:48;;;;;;;9.10;5.53;;;;;;;14.29;57.42;103587.25;4993773;28;20061;-87
2021/12/17 12:01:51;;;;;;;8.20;4.97;;;;;;;14.27;57.30;103588.25;5017751;28;20057;-86
2021/12/17 12:04:44;;;;;;;8.38;4.93;;;;;;;14.27;57.55;103583.66;5028200;28;20172;-85
2021/12/17 12:07:16;;;;;;;8.13;4.80;;;;;;;14.29;57.39;103589.97;5016580;28;20057;-85
2021/12/17 12:09:57;;;;;;;9.13;5.68;;;;;;;14.29;57.16;103589.97;5035875;28;20424;-85
2021/12/17 12:12:42;;;;;;;7.80;4.65;;;;;;;14.26;57.52;103589.19;5012451;28;20057;-85
2021/12/17 12:15:31;;;;;;;9.07;5.30;;;;;;;14.25;57.19;103574.63;5030565;28;20140;-86
2021/12/17 12:17:57;;;;;;;9.90;5.53;;;;;;;14.21;57.53;103574.81;5031426;28;20562;-89
2021/12/17 12:20:43;;;;;;;9.30;5.75;;;;;;;14.21;57.12;103572.97;5034940;28;20136;-87
2021/12/17 12:23:38;;;;;;;8.30;5.22;;;;;;;14.20;56.92;103575.78;5018573;28;20038;-84
2021/12/17 12:26:05;;;;;;;8.25;5.57;;;;;;;14.14;57.28;103576.91;4991748;28;20045;-87
2021/12/17 12:28:47;;;;;;;9.07;5.55;;;;;;;14.17;57.30;103574.03;5021174;28;20053;-90
2021/12/17 12:31:26;;;;;;;8.10;4.75;;;;;;;14.17;57.47;103578.59;5025979;28;20042;-87
2021/12/17 12:34:06;;;;;;;8.18;5.55;;;;;;;14.17;57.29;103567.69;5015084;28;20046;-88
2021/12/17 12:37:00;;;;;;;9.27;5.63;;;;;;;14.16;57.49;103582.31;5033296;28;20046;-90
2021/12/17 12:39:48;;;;;;;9.38;5.70;;;;;;;14.16;57.20;103569.56;5046337;28;20049;-88
2021/12/17 12:42:23;;;;;;;10.38;5.80;;;;;;;14.16;57.20;103568.66;5032767;28;20103;-88
2021/12/17 12:44:49;;;;;;;9.68;5.82;;;;;;;14.13;57.33;103568.75;5048199;28;20050;-84
2021/12/17 12:47:34;;;;;;;8.95;5.55;;;;;;;14.17;57.38;103562.22;5029476;28;20045;-85
2021/12/17 12:50:04;;;;;;;8.65;5.32;;;;;;;14.15;57.61;103572.34;5027457;28;20050;-88
2021/12/17 12:52:31;;;;;;;11.13;6.50;;;;;;;14.16;57.47;103576.84;5005484;28;20459;-86
2021/12/17 12:55:28;;;;;;;9.70;5.90;;;;;;;14.19;57.58;103576.72;5032241;28;20145;-88
2021/12/17 12:58:16;;;;;;;11.23;6.82;;;;;;;14.15;57.08;103580.53;5024926;28;20100;-89
2021/12/17 13:00:54;;;;;;;10.57;6.55;;;;;;;14.18;56.89;103572.19;5027512;28;20057;-87
2021/12/17 13:03:27;;;;;;;11.38;6.90;;;;;;;14.15;57.49;103567.75;5031754;28;20124;-86
2021/12/17 13:05:55;;;;;;;;;;;;;;;13.89;57.88;103574.22;5033784;28;20049;-86
2021/12/17 13:08:26;;;;;;;9.52;5.40;;;;;;;14.06;57.43;103579.03;5011428;28;19924;-88
2021/12/17 13:10:56;;;;;;;9.57;6.22;;;;;;;14.04;57.34;103565.44;5041052;28;20805;-89
2021/12/17 13:24:11;;;;;;;10.55;6.47;;;;;;;13.96;57.57;103567.56;5024796;28;20053;-87
2021/12/17 13:27:00;;;;;;;9.75;6.47;;;;;;;13.93;57.58;103567.69;5046426;28;20053;-88
2021/12/17 13:29:37;;;;;;;10.05;6.13;;;;;;;13.93;57.54;103562.22;5007497;28;20057;-85
2021/12/17 13:32:09;;;;;;;11.80;6.95;;;;;;;13.92;57.43;103563.16;5036216;28;20061;-88
2021/12/17 13:34:36;;;;;;;9.88;5.50;;;;;;;13.91;57.29;103553.22;5014921;28;20047;-86
2021/12/17 13:37:15;;;;;;;9.23;5.57;;;;;;;13.95;57.51;103549.41;5028093;28;20045;-86
2021/12/17 13:39:57;;;;;;;9.50;5.78;;;;;;;13.95;57.41;103545.78;5039116;28;20052;-85
2021/12/17 13:42:25;;;;;;;9.52;5.53;;;;;;;13.93;57.49;103534.91;5029555;28;20053;-85
2021/12/17 13:45:00;;;;;;;9.20;5.05;;;;;;;13.96;57.53;103534.78;5015630;28;20057;-86
2021/12/17 13:47:54;;;;;;;8.55;5.18;;;;;;;13.96;57.21;103537.53;5035309;28;20144;-86
2021/12/17 13:50:25;;;;;;;9.77;5.32;;;;;;;13.92;57.08;103532.22;5025512;28;20404;-86
2021/12/17 13:52:53;;;;;;;8.20;5.07;;;;;;;13.94;56.95;103535.78;5026069;28;20132;-86
2021/12/17 13:55:34;;;;;;;8.55;5.05;;;;;;;13.94;57.15;103536.69;5033267;28;20041;-89
2021/12/17 13:58:09;;;;;;;8.73;5.75;;;;;;;13.92;57.29;103530.38;5013639;28;20064;-89
2021/12/17 14:00:43;;;;;;;8.60;5.28;;;;;;;13.94;56.81;103531.22;5030444;28;20103;-88
2021/12/17 14:03:14;;;;;;;8.15;5.60;;;;;;;13.94;57.21;103533.06;5031208;28;20133;-89
2021/12/17 14:05:57;;;;;;;9.48;6.00;;;;;;;13.94;56.89;103535.78;5031244;28;20053;-87
2021/12/17 14:08:24;;;;;;;9.20;5.90;;;;;;;13.91;57.20;103528.63;5019352;28;20137;-85
2021/12/17 14:10:54;;;;;;;8.38;5.15;;;;;;;13.95;57.06;103529.38;5038014;28;20049;-85
2021/12/17 14:13:27;;;;;;;9.05;5.55;;;;;;;13.96;57.09;103525.69;5047474;28;20049;-86
2021/12/17 14:16:02;;;;;;;9.00;5.60;;;;;;;13.95;57.06;103527.53;5024554;28;20108;-87
2021/12/17 14:18:29;;;;;;;8.82;5.10;;;;;;;13.97;57.00;103531.13;5027380;28;20115;-89
2021/12/17 14:21:02;;;;;;;7.35;4.75;;;;;;;14.01;56.96;103526.41;5031221;28;20095;-89
2021/12/17 14:23:31;;;;;;;7.55;4.60;;;;;;;13.99;57.02;103529.22;5013733;28;20475;-87
2021/12/17 14:26:00;;;;;;;7.30;4.63;;;;;;;14.00;57.11;103525.50;5030898;28;20069;-86
2021/12/17 14:28:33;;;;;;;6.72;4.20;;;;;;;14.03;56.62;103533.59;5031129;28;20053;-86
2021/12/17 14:31:10;;;;;;;7.75;4.47;;;;;;;14.03;56.80;103539.06;5031276;28;20076;-84
2021/12/17 14:33:49;;;;;;;6.82;4.30;;;;;;;14.03;56.03;103536.34;5030765;28;20053;-83
2021/12/17 14:36:18;;;;;;;7.05;4.18;;;;;;;14.00;56.27;103543.78;5030547;28;20435;-86
2021/12/17 14:38:59;;;;;;;6.45;3.85;;;;;;;13.98;56.15;103540.19;5037783;28;20052;-85